Time;durP1;ratioP1;P1;durP2;ratioP2;P2;SDS_P1;SDS_P2;PMS_P1;PMS_P2;Temp;Humidity;BMP_temperature;BMP_pressure;BME280_temperature;BME280_humidity;BME280_pressure;Samples;Min_cycle;Max_cycle;Signal;HPM_P1;HPM_P2
2021/08/06 00:02:01;;;;;;;7.77;7.17;;;;;;;;;;5096448;28;20466;-73
2021/08/06 00:04:27;;;;;;;8.50;7.70;;;;;;;;;;5095884;28;20478;-71
2021/08/06 00:06:53;;;;;;;8.43;7.70;;;;;;;;;;5095974;28;20758;-74
2021/08/06 00:09:19;;;;;;;7.93;7.33;;;;;;;;;;5096317;28;20429;-72
2021/08/06 00:11:45;;;;;;;8.87;8.17;;;;;;;;;;5096135;28;20416;-73
2021/08/06 00:14:11;;;;;;;8.53;7.73;;;;;;;;;;5096015;28;20469;-74
2021/08/06 00:16:37;;;;;;;8.87;8.10;;;;;;;;;;5095552;28;20417;-73
2021/08/06 00:19:03;;;;;;;8.60;7.83;;;;;;;;;;5095961;28;20423;-71
2021/08/06 00:21:30;;;;;;;8.20;7.50;;;;;;;;;;5095972;28;20417;-70
2021/08/06 00:23:56;;;;;;;9.03;8.27;;;;;;;;;;5095435;28;20436;-72
2021/08/06 00:26:22;;;;;;;9.03;8.23;;;;;;;;;;5085755;28;20410;-73
2021/08/06 00:28:48;;;;;;;8.43;7.73;;;;;;;;;;5075511;28;20516;-71
2021/08/06 00:31:14;;;;;;;8.83;7.97;;;;;;;;;;5075418;28;20436;-72
2021/08/06 00:33:40;;;;;;;9.37;8.57;;;;;;;;;;5075404;28;20466;-73
2021/08/06 00:36:06;;;;;;;9.83;8.90;;;;;;;;;;5075702;28;20416;-69
2021/08/06 00:38:32;;;;;;;10.23;9.33;;;;;;;;;;5075212;28;20776;-71
2021/08/06 00:40:58;;;;;;;11.03;9.30;;;;;;;;;;5075230;28;20410;-72
2021/08/06 00:43:24;;;;;;;9.13;8.23;;;;;;;;;;5075417;28;20775;-70
2021/08/06 00:45:50;;;;;;;10.67;9.67;;;;;;;;;;5075513;28;20441;-75
2021/08/06 00:48:16;;;;;;;10.60;9.60;;;;;;;;;;5074997;28;20448;-70
2021/08/06 00:50:42;;;;;;;9.77;8.87;;;;;;;;;;5075560;28;20468;-74
2021/08/06 00:53:09;;;;;;;10.40;9.50;;;;;;;;;;5079213;28;20441;-73
2021/08/06 00:55:36;;;;;;;10.70;9.70;;;;;;;;;;5089060;28;20513;-69
2021/08/06 00:58:02;;;;;;;10.30;9.40;;;;;;;;;;5074425;28;20417;-73
2021/08/06 01:00:28;;;;;;;9.93;8.97;;;;;;;;;;5075111;28;20933;-73
2021/08/06 01:03:03;;;;;;;10.27;9.30;;;;;;;;;;5074723;28;20472;-72
2021/08/06 01:05:30;;;;;;;10.13;9.27;;;;;;;;;;5074960;28;20566;-73
2021/08/06 01:08:26;;;;;;;9.30;8.50;;;;;;;;;;5074457;28;20409;-73
2021/08/06 01:11:00;;;;;;;8.80;8.10;;;;;;;;;;5065715;28;20763;-72
2021/08/06 01:13:30;;;;;;;9.53;8.73;;;;;;;;;;5074594;28;20444;-73
2021/08/06 01:15:58;;;;;;;9.47;8.47;;;;;;;;;;5074847;28;20475;-75
2021/08/06 01:18:27;;;;;;;9.07;8.37;;;;;;;;;;5074568;28;20492;-69
2021/08/06 01:20:55;;;;;;;9.03;8.13;;;;;;;;;;5074600;28;20544;-71
2021/08/06 01:23:40;;;;;;;9.10;8.27;;;;;;;;;;5074355;28;20499;-73
2021/08/06 01:26:10;;;;;;;9.43;8.63;;;;;;;;;;5075034;28;20502;-71
2021/08/06 01:28:37;;;;;;;8.63;7.93;;;;;;;;;;5074312;28;20407;-73
2021/08/06 01:31:04;;;;;;;9.03;8.10;;;;;;;;;;5074451;28;20414;-75
2021/08/06 01:33:30;;;;;;;9.10;8.40;;;;;;;;;;5074238;28;20783;-72
2021/08/06 01:35:56;;;;;;;9.67;8.77;;;;;;;;;;5074352;28;20414;-70
2021/08/06 01:38:22;;;;;;;9.77;8.30;;;;;;;;;;5074031;28;20948;-73
2021/08/06 01:41:06;;;;;;;9.67;8.87;;;;;;;;;;5074185;28;20414;-70
2021/08/06 01:43:35;;;;;;;9.90;9.03;;;;;;;;;;5074206;28;20438;-72
2021/08/06 01:46:17;;;;;;;9.80;8.80;;;;;;;;;;5074141;28;20523;-74
2021/08/06 01:48:46;;;;;;;9.90;9.10;;;;;;;;;;5074144;28;20410;-71
2021/08/06 01:51:13;;;;;;;9.50;8.70;;;;;;;;;;5074225;28;20482;-74
2021/08/06 01:53:44;;;;;;;8.93;8.13;;;;;;;;;;5080665;28;20559;-74
2021/08/06 01:56:12;;;;;;;10.80;9.80;;;;;;;;;;5081798;28;20406;-71
2021/08/06 01:58:39;;;;;;;10.03;9.20;;;;;;;;;;5073468;28;20410;-73
2021/08/06 02:01:05;;;;;;;10.00;8.73;;;;;;;;;;5073864;28;20790;-73
2021/08/06 02:03:31;;;;;;;9.90;9.00;;;;;;;;;;5073894;28;20430;-71
2021/08/06 02:05:57;;;;;;;10.07;9.23;;;;;;;;;;5073746;28;20895;-70
2021/08/06 02:08:23;;;;;;;10.70;9.60;;;;;;;;;;5073541;28;20413;-72
2021/08/06 02:10:50;;;;;;;10.47;9.40;;;;;;;;;;5073862;28;20449;-74
2021/08/06 02:13:17;;;;;;;11.07;9.17;;;;;;;;;;5073480;28;20549;-75
2021/08/06 02:15:47;;;;;;;11.50;10.30;;;;;;;;;;5072987;28;20411;-69
2021/08/06 02:18:16;;;;;;;13.50;10.80;;;;;;;;;;5073304;28;20898;-73
2021/08/06 02:20:42;;;;;;;12.20;9.90;;;;;;;;;;5073573;28;20421;-73
2021/08/06 02:23:09;;;;;;;12.60;11.50;;;;;;;;;;5073471;28;20480;-71
2021/08/06 02:25:35;;;;;;;11.60;10.60;;;;;;;;;;5073160;28;20419;-73
2021/08/06 02:28:02;;;;;;;11.83;10.47;;;;;;;;;;5073240;28;20539;-72
2021/08/06 02:30:29;;;;;;;12.57;11.37;;;;;;;;;;5073451;28;20407;-69
2021/08/06 02:32:56;;;;;;;12.90;11.60;;;;;;;;;;5073386;28;20434;-71
2021/08/06 02:35:22;;;;;;;11.50;10.50;;;;;;;;;;5073541;28;20549;-69
2021/08/06 02:37:49;;;;;;;10.87;9.77;;;;;;;;;;5072828;28;20437;-71
2021/08/06 02:40:16;;;;;;;10.83;9.73;;;;;;;;;;5073653;28;20867;-72
2021/08/06 02:42:42;;;;;;;10.63;9.63;;;;;;;;;;5073148;28;20492;-72
2021/08/06 02:45:08;;;;;;;10.60;9.70;;;;;;;;;;5090918;28;20470;-69
2021/08/06 02:47:34;;;;;;;10.57;9.60;;;;;;;;;;5093062;28;20414;-73
2021/08/06 02:50:00;;;;;;;10.80;9.90;;;;;;;;;;5093438;28;20416;-72
2021/08/06 02:52:26;;;;;;;10.43;9.53;;;;;;;;;;5093314;28;20413;-70
2021/08/06 02:54:52;;;;;;;10.63;9.63;;;;;;;;;;5092909;28;20544;-74
2021/08/06 02:57:18;;;;;;;10.60;9.70;;;;;;;;;;5071102;28;20442;-70
2021/08/06 02:59:44;;;;;;;10.73;9.50;;;;;;;;;;5073010;28;20437;-73
2021/08/06 03:02:10;;;;;;;11.30;10.30;;;;;;;;;;5072916;28;20413;-69
2021/08/06 03:04:36;;;;;;;10.60;9.50;;;;;;;;;;5073019;28;20461;-71
2021/08/06 03:07:02;;;;;;;13.93;10.13;;;;;;;;;;5072740;28;20418;-72
2021/08/06 03:09:28;;;;;;;13.40;10.70;;;;;;;;;;5072866;28;20418;-72
2021/08/06 03:11:55;;;;;;;11.47;10.37;;;;;;;;;;5072960;28;20410;-73
2021/08/06 03:14:21;;;;;;;11.13;10.13;;;;;;;;;;5072865;28;20469;-72
2021/08/06 03:16:47;;;;;;;12.17;10.97;;;;;;;;;;5072609;28;20410;-69
2021/08/06 03:19:13;;;;;;;11.70;10.70;;;;;;;;;;5072951;28;20403;-72
2021/08/06 03:21:39;;;;;;;11.40;10.40;;;;;;;;;;5072826;28;20441;-70
2021/08/06 03:24:05;;;;;;;12.00;11.00;;;;;;;;;;5077099;28;20431;-70
2021/08/06 03:26:31;;;;;;;11.23;10.33;;;;;;;;;;5093725;28;20485;-71
2021/08/06 03:28:57;;;;;;;12.67;10.40;;;;;;;;;;5089616;28;20794;-73
2021/08/06 03:31:23;;;;;;;11.70;10.60;;;;;;;;;;5076859;28;20422;-73
2021/08/06 03:33:49;;;;;;;11.40;10.40;;;;;;;;;;5080948;28;20457;-71
2021/08/06 03:36:15;;;;;;;12.20;11.00;;;;;;;;;;5097108;28;20416;-74
2021/08/06 03:38:42;;;;;;;11.07;9.83;;;;;;;;;;5096616;28;20405;-70
2021/08/06 03:41:08;;;;;;;13.00;11.80;;;;;;;;;;5096939;28;20877;-73
2021/08/06 03:43:34;;;;;;;12.33;11.23;;;;;;;;;;5096477;28;20430;-70
2021/08/06 03:46:00;;;;;;;11.73;10.63;;;;;;;;;;5097163;28;20409;-73
2021/08/06 03:48:25;;;;;;;11.40;10.10;;;;;;;;;;5096238;28;20885;-73
2021/08/06 03:50:51;;;;;;;11.30;10.20;;;;;;;;;;5096702;28;20442;-72
2021/08/06 03:53:18;;;;;;;11.73;10.67;;;;;;;;;;5091837;28;20888;-74
2021/08/06 03:55:44;;;;;;;10.43;9.50;;;;;;;;;;5076478;28;20457;-72
2021/08/06 03:58:10;;;;;;;10.60;9.70;;;;;;;;;;5075743;28;20787;-71
2021/08/06 04:00:38;;;;;;;11.80;10.70;;;;;;;;;;5076243;28;20422;-71
2021/08/06 04:03:05;;;;;;;11.53;10.47;;;;;;;;;;5076117;28;20445;-73
2021/08/06 04:05:31;;;;;;;11.90;10.80;;;;;;;;;;5076209;28;20438;-71
2021/08/06 04:07:57;;;;;;;12.13;10.93;;;;;;;;;;5075539;28;20424;-71
2021/08/06 04:10:24;;;;;;;12.47;11.03;;;;;;;;;;5076001;28;20418;-70
2021/08/06 04:12:51;;;;;;;12.73;11.63;;;;;;;;;;5075812;28;20418;-69
2021/08/06 04:15:18;;;;;;;12.77;11.57;;;;;;;;;;5075898;28;20534;-71
2021/08/06 04:17:44;;;;;;;11.73;10.80;;;;;;;;;;5075353;28;20409;-73
2021/08/06 04:20:10;;;;;;;13.93;12.63;;;;;;;;;;5076117;28;20417;-74
2021/08/06 04:22:36;;;;;;;13.03;11.80;;;;;;;;;;5075651;28;20413;-74
2021/08/06 04:25:03;;;;;;;13.40;12.20;;;;;;;;;;5075770;28;20415;-73
2021/08/06 04:27:29;;;;;;;12.03;11.00;;;;;;;;;;5075429;28;20503;-74
2021/08/06 04:29:55;;;;;;;11.80;10.70;;;;;;;;;;5075903;28;20418;-73
2021/08/06 04:32:22;;;;;;;12.77;11.60;;;;;;;;;;5075573;28;20410;-74
2021/08/06 04:34:48;;;;;;;13.83;12.43;;;;;;;;;;5075225;28;20458;-72
2021/08/06 04:37:14;;;;;;;15.17;13.77;;;;;;;;;;5075008;28;20410;-74
2021/08/06 04:39:40;;;;;;;12.43;11.33;;;;;;;;;;5075807;28;20399;-71
2021/08/06 04:42:06;;;;;;;14.07;12.80;;;;;;;;;;5075371;28;20878;-72
2021/08/06 04:44:36;;;;;;;15.73;14.17;;;;;;;;;;5075256;28;20950;-73
2021/08/06 04:47:02;;;;;;;15.23;13.87;;;;;;;;;;5074860;28;20463;-73
2021/08/06 04:49:28;;;;;;;16.03;14.33;;;;;;;;;;5075306;28;20779;-74
2021/08/06 04:51:54;;;;;;;16.00;14.50;;;;;;;;;;5075338;28;20448;-72
2021/08/06 04:54:20;;;;;;;17.30;15.70;;;;;;;;;;5075178;28;20806;-73
2021/08/06 04:56:46;;;;;;;16.50;14.80;;;;;;;;;;5074573;28;20418;-74
2021/08/06 04:59:12;;;;;;;16.50;14.90;;;;;;;;;;5074854;28;20413;-72
2021/08/06 05:01:38;;;;;;;15.93;14.33;;;;;;;;;;5075066;28;20485;-75
2021/08/06 05:04:04;;;;;;;15.57;14.07;;;;;;;;;;5074763;28;20458;-70
2021/08/06 05:06:30;;;;;;;15.97;14.47;;;;;;;;;;5075264;28;20463;-73
2021/08/06 05:08:56;;;;;;;17.20;15.60;;;;;;;;;;5074480;28;20414;-73
2021/08/06 05:11:22;;;;;;;16.07;14.47;;;;;;;;;;5074848;28;20406;-73
2021/08/06 05:13:48;;;;;;;16.40;14.87;;;;;;;;;;5074621;28;20465;-72
2021/08/06 05:16:14;;;;;;;17.03;15.43;;;;;;;;;;5074797;28;20417;-73
2021/08/06 05:18:40;;;;;;;18.70;16.53;;;;;;;;;;5074193;28;20406;-73
2021/08/06 05:21:07;;;;;;;19.50;17.60;;;;;;;;;;5074656;28;20467;-72
2021/08/06 05:23:33;;;;;;;18.23;16.53;;;;;;;;;;5074675;28;20513;-70
2021/08/06 05:25:59;;;;;;;18.10;16.20;;;;;;;;;;5074801;28;20429;-69
2021/08/06 05:28:25;;;;;;;18.70;16.83;;;;;;;;;;5074048;28;20414;-72
2021/08/06 05:30:51;;;;;;;17.03;15.33;;;;;;;;;;5074867;28;20414;-70
2021/08/06 05:33:17;;;;;;;17.70;15.93;;;;;;;;;;5074274;28;20480;-70
2021/08/06 05:35:43;;;;;;;17.00;15.40;;;;;;;;;;5074156;28;20815;-71
2021/08/06 05:38:10;;;;;;;14.90;13.57;;;;;;;;;;5073777;28;20449;-70
2021/08/06 05:40:36;;;;;;;13.73;12.53;;;;;;;;;;5074360;28;20472;-70
2021/08/06 05:43:02;;;;;;;13.90;12.60;;;;;;;;;;5073851;28;20431;-72
2021/08/06 05:45:28;;;;;;;13.47;12.10;;;;;;;;;;5074540;28;20770;-74
2021/08/06 05:47:55;;;;;;;12.20;11.10;;;;;;;;;;5073823;28;20415;-73
2021/08/06 05:50:22;;;;;;;13.03;11.93;;;;;;;;;;5073468;28;20410;-73
2021/08/06 05:52:48;;;;;;;11.80;10.80;;;;;;;;;;5075027;28;20415;-72
2021/08/06 05:55:15;;;;;;;11.80;10.80;;;;;;;;;;5093282;28;20468;-71
2021/08/06 05:57:42;;;;;;;10.50;9.60;;;;;;;;;;5070158;28;20415;-71
2021/08/06 06:00:09;;;;;;;11.50;10.50;;;;;;;;;;5073925;28;20407;-72
2021/08/06 06:02:35;;;;;;;10.93;10.03;;;;;;;;;;5073622;28;20425;-72
2021/08/06 06:05:01;;;;;;;9.87;8.97;;;;;;;;;;5073744;28;20803;-73
2021/08/06 06:07:27;;;;;;;10.07;9.20;;;;;;;;;;5073177;28;20428;-71
2021/08/06 06:09:53;;;;;;;9.50;8.63;;;;;;;;;;5073759;28;20417;-70
2021/08/06 06:12:19;;;;;;;9.27;8.47;;;;;;;;;;5073811;28;20414;-72
2021/08/06 06:14:45;;;;;;;9.70;8.80;;;;;;;;;;5073376;28;20461;-73
2021/08/06 06:17:11;;;;;;;9.20;8.40;;;;;;;;;;5073248;28;20413;-73
2021/08/06 06:19:38;;;;;;;9.70;8.87;;;;;;;;;;5073469;28;20472;-73
2021/08/06 06:22:04;;;;;;;9.93;9.13;;;;;;;;;;5073680;28;20421;-71
2021/08/06 06:24:31;;;;;;;9.03;8.33;;;;;;;;;;5075265;28;20784;-72
2021/08/06 06:26:57;;;;;;;8.70;8.00;;;;;;;;;;5073895;28;20426;-74
2021/08/06 06:29:23;;;;;;;8.53;7.83;;;;;;;;;;5073740;28;20422;-72
2021/08/06 06:31:49;;;;;;;9.63;8.83;;;;;;;;;;5074144;28;20419;-71
2021/08/06 06:34:15;;;;;;;8.70;7.80;;;;;;;;;;5082058;28;20836;-71
2021/08/06 06:36:41;;;;;;;8.40;7.70;;;;;;;;;;5093538;28;20789;-72
2021/08/06 06:39:07;;;;;;;9.20;8.40;;;;;;;;;;5093443;28;20443;-71
2021/08/06 06:41:33;;;;;;;9.13;8.37;;;;;;;;;;5094095;28;20405;-70
2021/08/06 06:43:59;;;;;;;8.47;7.67;;;;;;;;;;5084078;28;20438;-70
2021/08/06 06:46:25;;;;;;;8.77;8.07;;;;;;;;;;5073334;28;20414;-71
2021/08/06 06:48:51;;;;;;;8.30;7.63;;;;;;;;;;5072830;28;20429;-73
2021/08/06 06:51:17;;;;;;;8.70;8.03;;;;;;;;;;5073367;28;20895;-70
2021/08/06 06:53:45;;;;;;;8.77;8.07;;;;;;;;;;5073042;28;20430;-70
2021/08/06 06:56:11;;;;;;;7.77;7.17;;;;;;;;;;5072837;28;20975;-73
2021/08/06 06:58:38;;;;;;;8.70;8.00;;;;;;;;;;5072719;28;20410;-73
2021/08/06 07:01:04;;;;;;;8.10;7.50;;;;;;;;;;5073102;28;20415;-73
2021/08/06 07:03:30;;;;;;;8.27;7.57;;;;;;;;;;5073353;28;20745;-74
2021/08/06 07:05:56;;;;;;;7.73;7.00;;;;;;;;;;5072925;28;20431;-74
2021/08/06 07:08:23;;;;;;;8.90;8.10;;;;;;;;;;5072954;28;20895;-72
2021/08/06 07:10:49;;;;;;;9.03;8.33;;;;;;;;;;5072999;28;20403;-73
2021/08/06 07:13:15;;;;;;;8.30;7.60;;;;;;;;;;5073027;28;20795;-77
2021/08/06 07:15:41;;;;;;;8.90;8.20;;;;;;;;;;5072769;28;20462;-71
2021/08/06 07:18:10;;;;;;;7.77;7.17;;;;;;;;;;5072645;28;20415;-74
2021/08/06 07:20:36;;;;;;;8.70;8.00;;;;;;;;;;5072960;28;20413;-70
2021/08/06 07:23:02;;;;;;;8.80;8.10;;;;;;;;;;5072878;28;20426;-73
2021/08/06 07:25:28;;;;;;;8.47;7.80;;;;;;;;;;5073083;28;20477;-73
2021/08/06 07:27:55;;;;;;;7.90;7.20;;;;;;;;;;5072411;28;20762;-74
2021/08/06 07:30:21;;;;;;;7.27;6.77;;;;;;;;;;5072577;28;20418;-70
2021/08/06 07:32:47;;;;;;;7.47;6.80;;;;;;;;;;5072984;28;20430;-69
2021/08/06 07:35:14;;;;;;;7.50;6.90;;;;;;;;;;5087867;28;20822;-72
2021/08/06 07:37:41;;;;;;;7.30;6.80;;;;;;;;;;5092841;28;20488;-74
2021/08/06 07:40:07;;;;;;;7.10;6.60;;;;;;;;;;5091207;28;20913;-71
2021/08/06 07:42:33;;;;;;;6.97;6.37;;;;;;;;;;5092896;28;20415;-73
2021/08/06 07:45:00;;;;;;;7.33;6.63;;;;;;;;;;5076825;28;20433;-72
2021/08/06 07:47:26;;;;;;;7.33;6.73;;;;;;;;;;5072243;28;20468;-71
2021/08/06 07:49:52;;;;;;;7.47;6.77;;;;;;;;;;5072465;28;20513;-69
2021/08/06 07:52:18;;;;;;;6.33;5.83;;;;;;;;;;5072265;28;20493;-73
2021/08/06 07:54:44;;;;;;;7.40;6.80;;;;;;;;;;5072195;28;20519;-71
2021/08/06 07:57:10;;;;;;;7.10;6.50;;;;;;;;;;5072216;28;20779;-70
2021/08/06 07:59:38;;;;;;;6.80;6.20;;;;;;;;;;5072401;28;20414;-72
2021/08/06 08:02:04;;;;;;;7.37;6.87;;;;;;;;;;5072418;28;20903;-73
2021/08/06 08:04:30;;;;;;;6.80;6.30;;;;;;;;;;5071951;28;20545;-73
2021/08/06 08:06:56;;;;;;;7.13;6.53;;;;;;;;;;5072118;28;20502;-72
2021/08/06 08:09:23;;;;;;;6.27;5.77;;;;;;;;;;5072523;28;20421;-69
2021/08/06 08:11:49;;;;;;;7.20;6.60;;;;;;;;;;5072140;28;20410;-71
2021/08/06 08:14:15;;;;;;;6.83;6.33;;;;;;;;;;5074852;28;20472;-74
2021/08/06 08:16:41;;;;;;;6.83;6.33;;;;;;;;;;5075339;28;20920;-71
2021/08/06 08:19:07;;;;;;;6.83;6.40;;;;;;;;;;5075845;28;20410;-73
2021/08/06 08:21:33;;;;;;;6.17;5.77;;;;;;;;;;5075635;28;20467;-73
2021/08/06 08:23:59;;;;;;;6.10;5.70;;;;;;;;;;5079179;28;20440;-71
2021/08/06 08:26:25;;;;;;;6.27;5.77;;;;;;;;;;5095861;28;20425;-71
2021/08/06 08:28:51;;;;;;;7.00;6.40;;;;;;;;;;5088821;28;20729;-70
2021/08/06 08:31:18;;;;;;;6.37;5.97;;;;;;;;;;5075636;28;20414;-72
2021/08/06 08:33:44;;;;;;;6.23;5.83;;;;;;;;;;5079387;28;20524;-70
2021/08/06 08:36:10;;;;;;;5.97;5.57;;;;;;;;;;5095746;28;20421;-74
2021/08/06 08:38:36;;;;;;;6.30;5.80;;;;;;;;;;5095534;28;20418;-74
2021/08/06 08:41:03;;;;;;;6.83;6.13;;;;;;;;;;5095785;28;20774;-70
2021/08/06 08:43:29;;;;;;;5.47;5.00;;;;;;;;;;5095528;28;20453;-74
2021/08/06 08:45:56;;;;;;;4.93;4.63;;;;;;;;;;5095667;28;20455;-72
2021/08/06 08:48:22;;;;;;;5.00;4.70;;;;;;;;;;5095332;28;20449;-70
2021/08/06 08:50:51;;;;;;;5.00;4.70;;;;;;;;;;5095354;28;20406;-73
2021/08/06 08:53:17;;;;;;;4.80;4.50;;;;;;;;;;5095279;28;20527;-71
2021/08/06 08:55:43;;;;;;;5.20;4.80;;;;;;;;;;5086906;28;20491;-73
2021/08/06 08:58:10;;;;;;;5.03;4.63;;;;;;;;;;5074758;28;20418;-71
2021/08/06 09:00:36;;;;;;;4.90;4.60;;;;;;;;;;5074852;28;20501;-70
2021/08/06 09:03:02;;;;;;;4.73;4.37;;;;;;;;;;5075251;28;20435;-72
2021/08/06 09:05:28;;;;;;;5.17;4.77;;;;;;;;;;5074801;28;20640;-71
2021/08/06 09:07:55;;;;;;;5.10;4.70;;;;;;;;;;5074694;28;20461;-70
2021/08/06 09:10:27;;;;;;;5.00;4.60;;;;;;;;;;5074926;28;20410;-73
2021/08/06 09:12:56;;;;;;;4.70;4.40;;;;;;;;;;5074505;28;20914;-73
2021/08/06 09:15:41;;;;;;;5.23;4.77;;;;;;;;;;5074961;28;20972;-73
2021/08/06 09:18:20;;;;;;;4.60;4.30;;;;;;;;;;5074313;28;20409;-70
2021/08/06 09:20:46;;;;;;;5.50;5.10;;;;;;;;;;5074500;28;20467;-70
2021/08/06 09:23:12;;;;;;;4.87;4.57;;;;;;;;;;5074660;28;20982;-72
2021/08/06 09:25:38;;;;;;;4.60;4.30;;;;;;;;;;5073313;28;20422;-74
2021/08/06 09:28:04;;;;;;;4.50;4.20;;;;;;;;;;5074160;28;20501;-70
2021/08/06 09:30:37;;;;;;;5.00;4.70;;;;;;;;;;5074511;28;20406;-69
2021/08/06 09:33:04;;;;;;;5.30;5.00;;;;;;;;;;5074420;28;20430;-74
2021/08/06 09:35:32;;;;;;;5.03;4.73;;;;;;;;;;5074211;28;20466;-72
2021/08/06 09:37:58;;;;;;;4.43;4.03;;;;;;;;;;5074072;28;20445;-71
2021/08/06 09:40:25;;;;;;;4.73;4.43;;;;;;;;;;5074281;28;20415;-73
2021/08/06 09:42:53;;;;;;;4.93;4.63;;;;;;;;;;5074047;28;20501;-74
2021/08/06 09:45:21;;;;;;;4.70;4.40;;;;;;;;;;5073887;28;20411;-73
2021/08/06 09:47:55;;;;;;;4.53;4.23;;;;;;;;;;5073891;28;20471;-72
2021/08/06 09:50:21;;;;;;;5.10;4.80;;;;;;;;;;5074464;28;20434;-73
2021/08/06 09:52:48;;;;;;;4.70;4.30;;;;;;;;;;5074265;28;20428;-74
2021/08/06 09:55:20;;;;;;;4.43;4.03;;;;;;;;;;5093707;28;20453;-72
2021/08/06 09:57:46;;;;;;;5.00;4.60;;;;;;;;;;5070915;28;20422;-70
2021/08/06 10:00:16;;;;;;;4.10;3.80;;;;;;;;;;5074104;28;20732;-72
2021/08/06 10:02:42;;;;;;;4.00;3.70;;;;;;;;;;5073962;28;20421;-73
2021/08/06 10:05:10;;;;;;;4.30;4.00;;;;;;;;;;5073820;28;20442;-71
2021/08/06 10:07:37;;;;;;;4.10;3.80;;;;;;;;;;5073212;28;20815;-71
2021/08/06 10:10:05;;;;;;;3.90;3.60;;;;;;;;;;5073982;28;20472;-71
2021/08/06 10:12:31;;;;;;;4.23;3.93;;;;;;;;;;5073505;28;20407;-74
2021/08/06 10:14:57;;;;;;;4.27;3.97;;;;;;;;;;5073817;28;20462;-71
2021/08/06 10:17:23;;;;;;;3.97;3.67;;;;;;;;;;5073179;28;20410;-69
2021/08/06 10:19:50;;;;;;;4.10;3.80;;;;;;;;;;5073543;28;20414;-70
2021/08/06 10:22:16;;;;;;;3.67;3.47;;;;;;;;;;5073361;28;20411;-73
2021/08/06 10:24:45;;;;;;;9.23;3.80;;;;;;;;;;5073957;28;20435;-69
2021/08/06 10:27:12;;;;;;;3.50;3.30;;;;;;;;;;5073012;28;20422;-73
2021/08/06 10:29:53;;;;;;;4.10;3.80;;;;;;;;;;5073304;28;20511;-69
2021/08/06 10:32:19;;;;;;;4.23;3.93;;;;;;;;;;5073375;28;20425;-72
2021/08/06 10:34:54;;;;;;;3.80;3.50;;;;;;;;;;5073125;28;20485;-70
2021/08/06 10:37:39;;;;;;;3.70;3.50;;;;;;;;;;5072306;28;20508;-71
2021/08/06 10:40:05;;;;;;;4.37;4.07;;;;;;;;;;5073177;28;20402;-72
2021/08/06 10:42:31;;;;;;;4.27;3.97;;;;;;;;;;5073169;28;20417;-71
2021/08/06 10:44:58;;;;;;;4.20;3.90;;;;;;;;;;5089360;28;20484;-71
2021/08/06 10:47:44;;;;;;;4.67;4.37;;;;;;;;;;5093087;28;20429;-70
2021/08/06 10:50:17;;;;;;;4.27;3.97;;;;;;;;;;5093221;28;20414;-71
2021/08/06 10:52:43;;;;;;;4.57;4.27;;;;;;;;;;5093285;28;20420;-71
2021/08/06 10:55:19;;;;;;;4.10;3.83;;;;;;;;;;5073546;28;20462;-73
2021/08/06 10:57:46;;;;;;;5.07;4.67;;;;;;;;;;5069587;28;20409;-71
2021/08/06 11:00:32;;;;;;;5.20;4.90;;;;;;;;;;5073169;28;20915;-71
2021/08/06 11:02:58;;;;;;;5.47;4.93;;;;;;;;;;5073529;28;20980;-71
2021/08/06 11:05:38;;;;;;;5.17;4.87;;;;;;;;;;5073484;28;20422;-71
2021/08/06 11:08:24;;;;;;;5.57;5.27;;;;;;;;;;5072561;28;20822;-70
2021/08/06 11:10:52;;;;;;;5.70;5.40;;;;;;;;;;5072945;28;20563;-72
2021/08/06 11:13:33;;;;;;;5.57;5.27;;;;;;;;;;5072947;28;20431;-71
2021/08/06 11:16:08;;;;;;;6.20;5.80;;;;;;;;;;5072694;28;20544;-71
2021/08/06 11:18:34;;;;;;;6.73;6.33;;;;;;;;;;5072567;28;20894;-69
2021/08/06 11:21:00;;;;;;;6.20;5.80;;;;;;;;;;5072937;28;20452;-71
2021/08/06 11:23:27;;;;;;;5.87;5.40;;;;;;;;;;5072845;28;20426;-71
2021/08/06 11:25:53;;;;;;;6.10;5.80;;;;;;;;;;5072630;28;20422;-71
2021/08/06 11:28:26;;;;;;;6.10;5.70;;;;;;;;;;5072375;28;20425;-73
2021/08/06 11:30:52;;;;;;;6.40;6.00;;;;;;;;;;5060207;28;20919;-72
2021/08/06 11:33:19;;;;;;;6.37;5.97;;;;;;;;;;5072753;28;20449;-72
2021/08/06 11:35:46;;;;;;;5.87;5.57;;;;;;;;;;5072616;28;20792;-72
2021/08/06 11:38:13;;;;;;;5.33;5.03;;;;;;;;;;5072464;28;20907;-70
2021/08/06 11:40:40;;;;;;;6.27;5.87;;;;;;;;;;5072778;28;20417;-71
2021/08/06 11:43:17;;;;;;;5.43;5.03;;;;;;;;;;5072643;28;20437;-70
2021/08/06 11:45:44;;;;;;;5.90;5.50;;;;;;;;;;5072679;28;20414;-70
2021/08/06 11:48:10;;;;;;;5.77;5.47;;;;;;;;;;5072154;28;20465;-72
2021/08/06 11:50:39;;;;;;;5.83;5.53;;;;;;;;;;5076553;28;20414;-72
2021/08/06 11:53:25;;;;;;;6.00;5.70;;;;;;;;;;5079499;28;20429;-70
2021/08/06 11:55:52;;;;;;;5.67;5.37;;;;;;;;;;5087171;28;20463;-72
2021/08/06 11:58:30;;;;;;;6.00;5.70;;;;;;;;;;5075572;28;20914;-72
2021/08/06 12:00:56;;;;;;;5.63;5.33;;;;;;;;;;5076246;28;20414;-73
2021/08/06 12:03:22;;;;;;;5.87;5.37;;;;;;;;;;5075979;28;20434;-70
2021/08/06 12:05:49;;;;;;;6.87;6.47;;;;;;;;;;5076011;28;20799;-70
2021/08/06 12:08:45;;;;;;;5.87;5.57;;;;;;;;;;5075543;28;20978;-71
2021/08/06 12:11:20;;;;;;;5.60;5.20;;;;;;;;;;5057146;28;20437;-72
2021/08/06 12:13:50;;;;;;;5.20;4.83;;;;;;;;;;5075846;28;20826;-70
2021/08/06 12:16:30;;;;;;;5.60;5.20;;;;;;;;;;5076066;28;20418;-73
2021/08/06 12:18:57;;;;;;;6.20;5.90;;;;;;;;;;5075893;28;20509;-75
2021/08/06 12:21:34;;;;;;;6.60;6.20;;;;;;;;;;5076125;28;20437;-72
2021/08/06 12:24:13;;;;;;;6.57;6.17;;;;;;;;;;5075826;28;20436;-70
2021/08/06 12:26:40;;;;;;;7.90;7.30;;;;;;;;;;5075561;28;20422;-71
2021/08/06 12:29:08;;;;;;;7.20;6.70;;;;;;;;;;5075577;28;20419;-72
2021/08/06 12:31:34;;;;;;;6.60;6.20;;;;;;;;;;5075702;28;20418;-71
2021/08/06 12:34:05;;;;;;;7.73;7.23;;;;;;;;;;5075321;28;20596;-72
2021/08/06 12:36:32;;;;;;;6.37;5.87;;;;;;;;;;5075285;28;20418;-72
2021/08/06 12:39:06;;;;;;;6.43;6.03;;;;;;;;;;5075229;28;20468;-69
2021/08/06 12:41:33;;;;;;;6.13;5.73;;;;;;;;;;5075562;28;20460;-71
2021/08/06 12:44:17;;;;;;;6.50;6.00;;;;;;;;;;5075427;28;20507;-73
2021/08/06 12:46:55;;;;;;;6.30;5.90;;;;;;;;;;5074941;28;20406;-70
2021/08/06 12:49:25;;;;;;;6.30;5.70;;;;;;;;;;5075572;28;20463;-71
2021/08/06 12:51:56;;;;;;;8.20;6.73;;;;;;;;;;5075956;28;20411;-72
2021/08/06 12:54:36;;;;;;;6.90;6.20;;;;;;;;;;5075066;28;20489;-74
2021/08/06 12:57:07;;;;;;;6.87;6.10;;;;;;;;;;5074756;28;20740;-72
2021/08/06 12:59:33;;;;;;;6.17;5.77;;;;;;;;;;5074926;28;20414;-71
2021/08/06 13:02:11;;;;;;;6.67;5.90;;;;;;;;;;5074136;28;20490;-69
2021/08/06 13:04:37;;;;;;;6.57;6.17;;;;;;;;;;5074680;28;20481;-71
2021/08/06 13:07:06;;;;;;;5.97;5.43;;;;;;;;;;5074580;28;20429;-73
2021/08/06 13:09:50;;;;;;;5.03;4.63;;;;;;;;;;5074964;28;20429;-72
2021/08/06 13:12:17;;;;;;;6.40;5.80;;;;;;;;;;5075154;28;20425;-72
2021/08/06 13:14:46;;;;;;;5.90;5.43;;;;;;;;;;5074563;28;20461;-69
2021/08/06 13:17:13;;;;;;;5.47;5.07;;;;;;;;;;5074712;28;20498;-73
2021/08/06 13:19:40;;;;;;;5.77;5.37;;;;;;;;;;5074727;28;20835;-70
2021/08/06 13:22:12;;;;;;;5.70;5.30;;;;;;;;;;5074544;28;20525;-72
2021/08/06 13:24:38;;;;;;;5.70;5.30;;;;;;;;;;5074623;28;20438;-72
2021/08/06 13:27:04;;;;;;;6.37;5.87;;;;;;;;;;5074335;28;20501;-71
2021/08/06 13:29:30;;;;;;;7.30;5.13;;;;;;;;;;5074599;28;20410;-71
2021/08/06 13:32:03;;;;;;;5.20;4.80;;;;;;;;;;5074642;28;20406;-75
2021/08/06 13:34:29;;;;;;;5.47;5.07;;;;;;;;;;5074443;28;20546;-74
2021/08/06 13:36:55;;;;;;;6.33;5.83;;;;;;;;;;5073982;28;20407;-73
2021/08/06 13:39:21;;;;;;;6.93;6.40;;;;;;;;;;5072778;28;20780;-69
2021/08/06 13:41:47;;;;;;;7.27;6.77;;;;;;;;;;5074288;28;20418;-72
2021/08/06 13:44:13;;;;;;;7.60;6.90;;;;;;;;;;5073973;28;20449;-73
2021/08/06 13:46:40;;;;;;;10.37;9.47;;;;;;;;;;5073958;28;20421;-70
2021/08/06 13:49:06;;;;;;;8.83;7.90;;;;;;;;;;5074162;28;20418;-71
2021/08/06 13:51:32;;;;;;;7.80;7.20;;;;;;;;;;5074333;28;20417;-72
2021/08/06 13:53:58;;;;;;;7.80;7.23;;;;;;;;;;5074202;28;20431;-71
2021/08/06 13:56:24;;;;;;;8.10;7.50;;;;;;;;;;5073744;28;20444;-72
2021/08/06 13:58:50;;;;;;;7.97;7.33;;;;;;;;;;5073527;28;20402;-70
2021/08/06 14:01:17;;;;;;;8.53;7.83;;;;;;;;;;5074153;28;20403;-73
2021/08/06 14:03:43;;;;;;;8.87;8.27;;;;;;;;;;5073517;28;20475;-73
2021/08/06 14:06:10;;;;;;;10.00;9.10;;;;;;;;;;5073930;28;20407;-71
2021/08/06 14:08:38;;;;;;;10.57;9.67;;;;;;;;;;5073667;28;20472;-70
2021/08/06 14:11:04;;;;;;;7.97;7.37;;;;;;;;;;5073128;28;20441;-74
2021/08/06 14:13:30;;;;;;;7.43;6.87;;;;;;;;;;5073627;28;20441;-70
2021/08/06 14:15:56;;;;;;;6.00;5.60;;;;;;;;;;5073338;28;20461;-71
2021/08/06 14:18:23;;;;;;;6.67;6.17;;;;;;;;;;5073355;28;20410;-70
2021/08/06 14:20:49;;;;;;;5.60;5.20;;;;;;;;;;5073405;28;20406;-73
2021/08/06 14:23:15;;;;;;;5.40;4.90;;;;;;;;;;5073360;28;20518;-73
2021/08/06 14:25:41;;;;;;;6.23;5.63;;;;;;;;;;5073178;28;20487;-73
2021/08/06 14:28:07;;;;;;;6.07;5.57;;;;;;;;;;5073105;28;20772;-74
2021/08/06 14:30:33;;;;;;;5.43;4.93;;;;;;;;;;5073039;28;20418;-70
2021/08/06 14:32:59;;;;;;;7.10;4.70;;;;;;;;;;5073442;28;20442;-73
2021/08/06 14:35:25;;;;;;;5.20;4.80;;;;;;;;;;5072800;28;20454;-73
2021/08/06 14:37:52;;;;;;;4.80;4.40;;;;;;;;;;5073107;28;20540;-73
2021/08/06 14:40:18;;;;;;;4.27;3.87;;;;;;;;;;5073153;28;20414;-69